sensor_id;sensor_type;location;lat;lon;timestamp;P1;durP1;ratioP1;P2;durP2;ratioP2
8737;SDS011;4405;49.272;8.590;2024-02-21T00:00:08;11.90;;;4.97;;
8737;SDS011;4405;49.272;8.590;2024-02-21T00:02:36;13.57;;;5.00;;
8737;SDS011;4405;49.272;8.590;2024-02-21T00:05:02;8.67;;;5.10;;
8737;SDS011;4405;49.272;8.590;2024-02-21T00:07:28;9.90;;;4.73;;
8737;SDS011;4405;49.272;8.590;2024-02-21T00:09:56;11.97;;;4.63;;
8737;SDS011;4405;49.272;8.590;2024-02-21T00:12:22;10.90;;;4.53;;
8737;SDS011;4405;49.272;8.590;2024-02-21T00:14:48;8.03;;;4.80;;
8737;SDS011;4405;49.272;8.590;2024-02-21T00:17:15;10.13;;;4.70;;
8737;SDS011;4405;49.272;8.590;2024-02-21T00:19:41;11.60;;;4.80;;
8737;SDS011;4405;49.272;8.590;2024-02-21T00:22:07;8.33;;;4.33;;
8737;SDS011;4405;49.272;8.590;2024-02-21T00:24:34;12.07;;;4.77;;
8737;SDS011;4405;49.272;8.590;2024-02-21T00:27:01;13.50;;;5.17;;
8737;SDS011;4405;49.272;8.590;2024-02-21T00:29:28;11.10;;;4.60;;
8737;SDS011;4405;49.272;8.590;2024-02-21T00:31:54;8.27;;;4.10;;
8737;SDS011;4405;49.272;8.590;2024-02-21T00:34:20;9.50;;;4.43;;
8737;SDS011;4405;49.272;8.590;2024-02-21T00:36:46;11.00;;;4.30;;
8737;SDS011;4405;49.272;8.590;2024-02-21T00:39:12;10.77;;;4.27;;
8737;SDS011;4405;49.272;8.590;2024-02-21T00:41:39;10.97;;;3.90;;
8737;SDS011;4405;49.272;8.590;2024-02-21T00:44:06;8.13;;;3.93;;
8737;SDS011;4405;49.272;8.590;2024-02-21T00:46:32;7.77;;;3.70;;
8737;SDS011;4405;49.272;8.590;2024-02-21T00:48:59;7.93;;;4.07;;
8737;SDS011;4405;49.272;8.590;2024-02-21T00:51:25;8.13;;;4.03;;
8737;SDS011;4405;49.272;8.590;2024-02-21T00:53:51;7.77;;;4.23;;
8737;SDS011;4405;49.272;8.590;2024-02-21T00:56:17;7.57;;;3.73;;
8737;SDS011;4405;49.272;8.590;2024-02-21T00:58:44;12.23;;;3.93;;
8737;SDS011;4405;49.272;8.590;2024-02-21T01:01:11;9.27;;;4.17;;
8737;SDS011;4405;49.272;8.590;2024-02-21T01:03:39;10.37;;;4.57;;
8737;SDS011;4405;49.272;8.590;2024-02-21T01:06:05;7.87;;;4.37;;
8737;SDS011;4405;49.272;8.590;2024-02-21T01:08:31;12.70;;;4.33;;
8737;SDS011;4405;49.272;8.590;2024-02-21T01:10:57;11.37;;;4.00;;
8737;SDS011;4405;49.272;8.590;2024-02-21T01:13:24;8.13;;;4.13;;
8737;SDS011;4405;49.272;8.590;2024-02-21T01:15:50;11.30;;;5.07;;
8737;SDS011;4405;49.272;8.590;2024-02-21T01:18:17;10.33;;;4.60;;
8737;SDS011;4405;49.272;8.590;2024-02-21T01:20:44;8.93;;;4.07;;
8737;SDS011;4405;49.272;8.590;2024-02-21T01:23:10;12.57;;;4.80;;
8737;SDS011;4405;49.272;8.590;2024-02-21T01:25:36;13.53;;;4.40;;
8737;SDS011;4405;49.272;8.590;2024-02-21T01:28:03;10.17;;;4.67;;
8737;SDS011;4405;49.272;8.590;2024-02-21T01:30:29;9.10;;;4.20;;
8737;SDS011;4405;49.272;8.590;2024-02-21T01:32:55;12.23;;;4.27;;
8737;SDS011;4405;49.272;8.590;2024-02-21T01:35:23;9.53;;;4.40;;
8737;SDS011;4405;49.272;8.590;2024-02-21T01:37:49;16.83;;;4.47;;
8737;SDS011;4405;49.272;8.590;2024-02-21T01:40:16;7.83;;;4.37;;
8737;SDS011;4405;49.272;8.590;2024-02-21T01:42:43;12.43;;;4.93;;
8737;SDS011;4405;49.272;8.590;2024-02-21T01:45:09;10.57;;;4.50;;
8737;SDS011;4405;49.272;8.590;2024-02-21T01:47:35;9.90;;;4.43;;
8737;SDS011;4405;49.272;8.590;2024-02-21T01:50:02;6.63;;;3.80;;
8737;SDS011;4405;49.272;8.590;2024-02-21T01:52:30;10.43;;;4.73;;
8737;SDS011;4405;49.272;8.590;2024-02-21T01:54:57;9.13;;;4.30;;
8737;SDS011;4405;49.272;8.590;2024-02-21T01:57:23;12.60;;;4.10;;
8737;SDS011;4405;49.272;8.590;2024-02-21T01:59:49;11.30;;;4.00;;
8737;SDS011;4405;49.272;8.590;2024-02-21T02:02:16;7.50;;;4.30;;
8737;SDS011;4405;49.272;8.590;2024-02-21T02:04:42;8.83;;;4.40;;
8737;SDS011;4405;49.272;8.590;2024-02-21T02:07:09;9.60;;;4.07;;
8737;SDS011;4405;49.272;8.590;2024-02-21T02:09:37;12.87;;;4.43;;
8737;SDS011;4405;49.272;8.590;2024-02-21T02:12:04;8.97;;;4.10;;
8737;SDS011;4405;49.272;8.590;2024-02-21T02:14:30;14.37;;;5.03;;
8737;SDS011;4405;49.272;8.590;2024-02-21T02:16:56;9.40;;;4.00;;
8737;SDS011;4405;49.272;8.590;2024-02-21T02:19:22;7.77;;;3.80;;
8737;SDS011;4405;49.272;8.590;2024-02-21T02:21:49;9.10;;;4.47;;
8737;SDS011;4405;49.272;8.590;2024-02-21T02:24:19;7.77;;;4.13;;
8737;SDS011;4405;49.272;8.590;2024-02-21T02:26:46;9.70;;;4.27;;
8737;SDS011;4405;49.272;8.590;2024-02-21T02:29:12;12.03;;;3.87;;
8737;SDS011;4405;49.272;8.590;2024-02-21T02:31:39;11.20;;;4.73;;
8737;SDS011;4405;49.272;8.590;2024-02-21T02:34:06;9.03;;;4.43;;
8737;SDS011;4405;49.272;8.590;2024-02-21T02:36:32;8.40;;;4.60;;
8737;SDS011;4405;49.272;8.590;2024-02-21T02:38:59;13.83;;;4.73;;
8737;SDS011;4405;49.272;8.590;2024-02-21T02:41:26;8.37;;;4.27;;
8737;SDS011;4405;49.272;8.590;2024-02-21T02:43:53;11.03;;;4.20;;
8737;SDS011;4405;49.272;8.590;2024-02-21T02:46:19;8.00;;;4.30;;
8737;SDS011;4405;49.272;8.590;2024-02-21T02:48:45;11.63;;;4.00;;
8737;SDS011;4405;49.272;8.590;2024-02-21T02:51:11;11.77;;;4.00;;
8737;SDS011;4405;49.272;8.590;2024-02-21T02:53:37;10.83;;;4.60;;
8737;SDS011;4405;49.272;8.590;2024-02-21T02:56:04;10.90;;;4.00;;
8737;SDS011;4405;49.272;8.590;2024-02-21T02:58:31;11.67;;;4.07;;
8737;SDS011;4405;49.272;8.590;2024-02-21T03:01:00;9.13;;;3.97;;
8737;SDS011;4405;49.272;8.590;2024-02-21T03:03:27;7.10;;;3.90;;
8737;SDS011;4405;49.272;8.590;2024-02-21T03:05:53;9.40;;;3.73;;
8737;SDS011;4405;49.272;8.590;2024-02-21T03:08:20;9.63;;;4.07;;
8737;SDS011;4405;49.272;8.590;2024-02-21T03:10:47;9.47;;;4.13;;
8737;SDS011;4405;49.272;8.590;2024-02-21T03:13:14;9.50;;;4.13;;
8737;SDS011;4405;49.272;8.590;2024-02-21T03:15:41;10.17;;;3.90;;
8737;SDS011;4405;49.272;8.590;2024-02-21T03:18:07;9.40;;;3.93;;
8737;SDS011;4405;49.272;8.590;2024-02-21T03:20:34;16.33;;;8.63;;
8737;SDS011;4405;49.272;8.590;2024-02-21T03:23:00;8.73;;;4.20;;
8737;SDS011;4405;49.272;8.590;2024-02-21T03:25:26;10.93;;;4.40;;
8737;SDS011;4405;49.272;8.590;2024-02-21T03:27:52;9.13;;;3.60;;
8737;SDS011;4405;49.272;8.590;2024-02-21T03:30:19;9.63;;;3.93;;
8737;SDS011;4405;49.272;8.590;2024-02-21T03:32:47;9.67;;;3.90;;
8737;SDS011;4405;49.272;8.590;2024-02-21T03:35:13;7.00;;;3.50;;
8737;SDS011;4405;49.272;8.590;2024-02-21T03:37:39;5.97;;;3.27;;
8737;SDS011;4405;49.272;8.590;2024-02-21T03:40:07;7.17;;;3.50;;
8737;SDS011;4405;49.272;8.590;2024-02-21T03:42:33;6.97;;;3.50;;
8737;SDS011;4405;49.272;8.590;2024-02-21T03:44:59;6.70;;;3.63;;
8737;SDS011;4405;49.272;8.590;2024-02-21T03:47:25;13.73;;;3.80;;
8737;SDS011;4405;49.272;8.590;2024-02-21T03:49:53;6.60;;;3.50;;
8737;SDS011;4405;49.272;8.590;2024-02-21T03:52:19;8.27;;;3.53;;
8737;SDS011;4405;49.272;8.590;2024-02-21T03:54:45;9.93;;;3.53;;
8737;SDS011;4405;49.272;8.590;2024-02-21T03:57:12;9.90;;;3.20;;
8737;SDS011;4405;49.272;8.590;2024-02-21T03:59:38;8.60;;;3.73;;
8737;SDS011;4405;49.272;8.590;2024-02-21T04:02:05;10.07;;;3.70;;
8737;SDS011;4405;49.272;8.590;2024-02-21T04:04:33;11.90;;;3.70;;
8737;SDS011;4405;49.272;8.590;2024-02-21T04:07:01;9.10;;;3.70;;
8737;SDS011;4405;49.272;8.590;2024-02-21T04:09:31;7.93;;;3.33;;
8737;SDS011;4405;49.272;8.590;2024-02-21T04:11:57;8.03;;;3.43;;
8737;SDS011;4405;49.272;8.590;2024-02-21T04:14:23;12.37;;;4.13;;
8737;SDS011;4405;49.272;8.590;2024-02-21T04:16:49;8.10;;;3.40;;
8737;SDS011;4405;49.272;8.590;2024-02-21T04:19:16;11.43;;;3.93;;
8737;SDS011;4405;49.272;8.590;2024-02-21T04:21:42;6.40;;;3.60;;
8737;SDS011;4405;49.272;8.590;2024-02-21T04:24:11;6.83;;;3.33;;
8737;SDS011;4405;49.272;8.590;2024-02-21T04:26:37;7.10;;;3.30;;
8737;SDS011;4405;49.272;8.590;2024-02-21T04:29:03;7.90;;;3.40;;
8737;SDS011;4405;49.272;8.590;2024-02-21T04:31:31;9.23;;;3.83;;
8737;SDS011;4405;49.272;8.590;2024-02-21T04:33:58;9.70;;;3.83;;
8737;SDS011;4405;49.272;8.590;2024-02-21T04:36:24;7.53;;;3.53;;
8737;SDS011;4405;49.272;8.590;2024-02-21T04:38:50;6.77;;;4.20;;
8737;SDS011;4405;49.272;8.590;2024-02-21T04:41:18;8.70;;;3.50;;
8737;SDS011;4405;49.272;8.590;2024-02-21T04:43:45;7.97;;;3.57;;
8737;SDS011;4405;49.272;8.590;2024-02-21T04:46:11;5.37;;;3.70;;
8737;SDS011;4405;49.272;8.590;2024-02-21T04:48:38;10.87;;;4.67;;
8737;SDS011;4405;49.272;8.590;2024-02-21T04:51:04;7.57;;;4.03;;
8737;SDS011;4405;49.272;8.590;2024-02-21T04:53:30;8.80;;;4.17;;
8737;SDS011;4405;49.272;8.590;2024-02-21T04:55:56;8.10;;;3.67;;
8737;SDS011;4405;49.272;8.590;2024-02-21T04:58:24;11.80;;;3.83;;
8737;SDS011;4405;49.272;8.590;2024-02-21T05:00:50;6.67;;;3.87;;
8737;SDS011;4405;49.272;8.590;2024-02-21T05:03:18;6.77;;;3.60;;
8737;SDS011;4405;49.272;8.590;2024-02-21T05:05:44;8.80;;;3.73;;
8737;SDS011;4405;49.272;8.590;2024-02-21T05:08:11;12.53;;;4.03;;
8737;SDS011;4405;49.272;8.590;2024-02-21T05:10:37;9.17;;;4.10;;
8737;SDS011;4405;49.272;8.590;2024-02-21T05:13:04;9.60;;;4.13;;
8737;SDS011;4405;49.272;8.590;2024-02-21T05:15:31;11.73;;;3.80;;
8737;SDS011;4405;49.272;8.590;2024-02-21T05:17:59;11.20;;;4.00;;
8737;SDS011;4405;49.272;8.590;2024-02-21T05:20:25;8.40;;;3.87;;
8737;SDS011;4405;49.272;8.590;2024-02-21T05:22:51;8.67;;;4.00;;
8737;SDS011;4405;49.272;8.590;2024-02-21T05:25:17;6.17;;;3.60;;
8737;SDS011;4405;49.272;8.590;2024-02-21T05:27:44;9.07;;;3.77;;
8737;SDS011;4405;49.272;8.590;2024-02-21T05:30:11;8.77;;;3.80;;
8737;SDS011;4405;49.272;8.590;2024-02-21T05:32:39;8.20;;;3.87;;
8737;SDS011;4405;49.272;8.590;2024-02-21T05:35:05;7.03;;;3.70;;
8737;SDS011;4405;49.272;8.590;2024-02-21T05:37:32;6.90;;;3.70;;
8737;SDS011;4405;49.272;8.590;2024-02-21T05:39:58;12.63;;;3.50;;
8737;SDS011;4405;49.272;8.590;2024-02-21T05:42:24;6.37;;;3.60;;
8737;SDS011;4405;49.272;8.590;2024-02-21T05:44:50;9.97;;;4.10;;
8737;SDS011;4405;49.272;8.590;2024-02-21T05:47:16;5.30;;;3.10;;
8737;SDS011;4405;49.272;8.590;2024-02-21T05:49:46;8.23;;;3.77;;
8737;SDS011;4405;49.272;8.590;2024-02-21T05:52:13;8.83;;;3.70;;
8737;SDS011;4405;49.272;8.590;2024-02-21T05:54:39;6.93;;;3.90;;
8737;SDS011;4405;49.272;8.590;2024-02-21T05:57:06;7.23;;;4.43;;
8737;SDS011;4405;49.272;8.590;2024-02-21T05:59:32;7.67;;;4.93;;
8737;SDS011;4405;49.272;8.590;2024-02-21T06:02:01;10.00;;;4.80;;
8737;SDS011;4405;49.272;8.590;2024-02-21T06:04:28;8.43;;;4.53;;
8737;SDS011;4405;49.272;8.590;2024-02-21T06:06:56;8.87;;;5.20;;
8737;SDS011;4405;49.272;8.590;2024-02-21T06:09:22;8.60;;;4.80;;
8737;SDS011;4405;49.272;8.590;2024-02-21T06:11:48;8.87;;;5.33;;
8737;SDS011;4405;49.272;8.590;2024-02-21T06:14:15;7.87;;;4.37;;
8737;SDS011;4405;49.272;8.590;2024-02-21T06:16:42;8.03;;;4.23;;
8737;SDS011;4405;49.272;8.590;2024-02-21T06:19:09;8.40;;;4.50;;
8737;SDS011;4405;49.272;8.590;2024-02-21T06:21:35;9.10;;;4.67;;
8737;SDS011;4405;49.272;8.590;2024-02-21T06:24:03;6.40;;;4.77;;
8737;SDS011;4405;49.272;8.590;2024-02-21T06:26:29;7.27;;;4.50;;
8737;SDS011;4405;49.272;8.590;2024-02-21T06:28:55;6.13;;;4.33;;
8737;SDS011;4405;49.272;8.590;2024-02-21T06:31:22;4.60;;;4.07;;
8737;SDS011;4405;49.272;8.590;2024-02-21T06:33:48;7.90;;;4.53;;
8737;SDS011;4405;49.272;8.590;2024-02-21T06:36:14;8.63;;;4.33;;
8737;SDS011;4405;49.272;8.590;2024-02-21T06:38:40;6.70;;;3.57;;
8737;SDS011;4405;49.272;8.590;2024-02-21T06:41:15;4.97;;;3.67;;
8737;SDS011;4405;49.272;8.590;2024-02-21T06:43:41;5.63;;;4.00;;
8737;SDS011;4405;49.272;8.590;2024-02-21T06:46:07;6.47;;;4.30;;
8737;SDS011;4405;49.272;8.590;2024-02-21T06:48:34;7.17;;;4.77;;
8737;SDS011;4405;49.272;8.590;2024-02-21T06:51:00;7.53;;;5.07;;
8737;SDS011;4405;49.272;8.590;2024-02-21T06:53:26;8.33;;;5.63;;
8737;SDS011;4405;49.272;8.590;2024-02-21T06:55:52;11.33;;;6.40;;
8737;SDS011;4405;49.272;8.590;2024-02-21T06:58:20;8.40;;;5.63;;
8737;SDS011;4405;49.272;8.590;2024-02-21T07:00:46;9.23;;;5.93;;
8737;SDS011;4405;49.272;8.590;2024-02-21T07:03:13;8.57;;;5.60;;
8737;SDS011;4405;49.272;8.590;2024-02-21T07:05:39;10.97;;;5.90;;
8737;SDS011;4405;49.272;8.590;2024-02-21T07:08:05;12.33;;;5.73;;
8737;SDS011;4405;49.272;8.590;2024-02-21T07:10:32;7.73;;;4.80;;
8737;SDS011;4405;49.272;8.590;2024-02-21T07:12:58;10.03;;;5.37;;
8737;SDS011;4405;49.272;8.590;2024-02-21T07:15:26;9.33;;;5.90;;
8737;SDS011;4405;49.272;8.590;2024-02-21T07:17:54;11.40;;;5.33;;
8737;SDS011;4405;49.272;8.590;2024-02-21T07:20:21;10.33;;;6.20;;
8737;SDS011;4405;49.272;8.590;2024-02-21T07:22:47;10.03;;;6.50;;
8737;SDS011;4405;49.272;8.590;2024-02-21T07:25:13;14.00;;;7.17;;
8737;SDS011;4405;49.272;8.590;2024-02-21T07:27:39;9.47;;;6.40;;
8737;SDS011;4405;49.272;8.590;2024-02-21T07:30:07;10.53;;;5.70;;
8737;SDS011;4405;49.272;8.590;2024-02-21T07:32:34;9.13;;;6.33;;
8737;SDS011;4405;49.272;8.590;2024-02-21T07:35:01;8.17;;;5.43;;
8737;SDS011;4405;49.272;8.590;2024-02-21T07:37:27;8.00;;;4.87;;
8737;SDS011;4405;49.272;8.590;2024-02-21T07:39:53;7.27;;;5.37;;
8737;SDS011;4405;49.272;8.590;2024-02-21T07:42:19;10.53;;;6.27;;
8737;SDS011;4405;49.272;8.590;2024-02-21T07:44:46;13.33;;;6.90;;
8737;SDS011;4405;49.272;8.590;2024-02-21T07:47:12;16.70;;;7.23;;
8737;SDS011;4405;49.272;8.590;2024-02-21T07:49:43;8.90;;;5.33;;
8737;SDS011;4405;49.272;8.590;2024-02-21T07:52:10;8.70;;;4.97;;
8737;SDS011;4405;49.272;8.590;2024-02-21T07:54:36;11.83;;;4.30;;
8737;SDS011;4405;49.272;8.590;2024-02-21T07:57:02;12.67;;;4.20;;
8737;SDS011;4405;49.272;8.590;2024-02-21T07:59:29;9.30;;;5.00;;
8737;SDS011;4405;49.272;8.590;2024-02-21T08:01:56;7.10;;;3.93;;
8737;SDS011;4405;49.272;8.590;2024-02-21T08:04:22;12.73;;;5.17;;
8737;SDS011;4405;49.272;8.590;2024-02-21T08:06:52;8.20;;;4.77;;
8737;SDS011;4405;49.272;8.590;2024-02-21T08:09:20;6.00;;;4.43;;
8737;SDS011;4405;49.272;8.590;2024-02-21T08:11:47;6.67;;;4.00;;
8737;SDS011;4405;49.272;8.590;2024-02-21T08:14:13;4.73;;;3.40;;
8737;SDS011;4405;49.272;8.590;2024-02-21T08:16:41;6.37;;;3.80;;
8737;SDS011;4405;49.272;8.590;2024-02-21T08:19:07;6.90;;;3.67;;
8737;SDS011;4405;49.272;8.590;2024-02-21T08:21:33;11.83;;;4.17;;
8737;SDS011;4405;49.272;8.590;2024-02-21T08:24:01;10.37;;;3.70;;
8737;SDS011;4405;49.272;8.590;2024-02-21T08:26:27;8.00;;;3.80;;
8737;SDS011;4405;49.272;8.590;2024-02-21T08:28:55;7.20;;;3.90;;
8737;SDS011;4405;49.272;8.590;2024-02-21T08:31:23;5.50;;;3.63;;
8737;SDS011;4405;49.272;8.590;2024-02-21T08:33:55;11.40;;;3.83;;
8737;SDS011;4405;49.272;8.590;2024-02-21T08:36:27;6.33;;;3.47;;
8737;SDS011;4405;49.272;8.590;2024-02-21T08:38:53;21.40;;;5.37;;
8737;SDS011;4405;49.272;8.590;2024-02-21T08:41:21;8.60;;;3.83;;
8737;SDS011;4405;49.272;8.590;2024-02-21T08:43:48;6.17;;;4.03;;
8737;SDS011;4405;49.272;8.590;2024-02-21T08:46:14;10.43;;;3.90;;
8737;SDS011;4405;49.272;8.590;2024-02-21T08:48:40;8.50;;;4.47;;
8737;SDS011;4405;49.272;8.590;2024-02-21T08:51:07;4.97;;;4.47;;
8737;SDS011;4405;49.272;8.590;2024-02-21T08:53:33;8.60;;;4.07;;
8737;SDS011;4405;49.272;8.590;2024-02-21T08:55:59;8.73;;;5.77;;
8737;SDS011;4405;49.272;8.590;2024-02-21T08:58:27;10.70;;;4.93;;
8737;SDS011;4405;49.272;8.590;2024-02-21T09:00:53;9.27;;;5.07;;
8737;SDS011;4405;49.272;8.590;2024-02-21T09:03:19;11.03;;;5.37;;
8737;SDS011;4405;49.272;8.590;2024-02-21T09:05:46;12.10;;;5.90;;
8737;SDS011;4405;49.272;8.590;2024-02-21T09:08:12;8.40;;;4.20;;
8737;SDS011;4405;49.272;8.590;2024-02-21T09:10:39;9.17;;;6.30;;
8737;SDS011;4405;49.272;8.590;2024-02-21T09:13:05;7.07;;;4.00;;
8737;SDS011;4405;49.272;8.590;2024-02-21T09:15:34;5.30;;;4.10;;
8737;SDS011;4405;49.272;8.590;2024-02-21T09:18:00;6.23;;;3.77;;
8737;SDS011;4405;49.272;8.590;2024-02-21T09:20:26;6.83;;;3.70;;
8737;SDS011;4405;49.272;8.590;2024-02-21T09:22:54;9.70;;;4.50;;
8737;SDS011;4405;49.272;8.590;2024-02-21T09:25:20;8.17;;;5.47;;
8737;SDS011;4405;49.272;8.590;2024-02-21T09:27:46;11.70;;;3.97;;
8737;SDS011;4405;49.272;8.590;2024-02-21T09:30:12;9.23;;;3.63;;
8737;SDS011;4405;49.272;8.590;2024-02-21T09:32:40;7.77;;;3.40;;
8737;SDS011;4405;49.272;8.590;2024-02-21T09:35:07;6.87;;;3.33;;
8737;SDS011;4405;49.272;8.590;2024-02-21T09:37:33;11.40;;;3.30;;
8737;SDS011;4405;49.272;8.590;2024-02-21T09:39:59;7.03;;;3.30;;
8737;SDS011;4405;49.272;8.590;2024-02-21T09:42:29;11.03;;;3.83;;
8737;SDS011;4405;49.272;8.590;2024-02-21T09:44:58;7.57;;;3.60;;
8737;SDS011;4405;49.272;8.590;2024-02-21T09:47:28;8.33;;;3.20;;
8737;SDS011;4405;49.272;8.590;2024-02-21T09:49:58;8.77;;;3.63;;
8737;SDS011;4405;49.272;8.590;2024-02-21T09:52:26;5.87;;;3.13;;
8737;SDS011;4405;49.272;8.590;2024-02-21T09:54:53;9.00;;;3.20;;
8737;SDS011;4405;49.272;8.590;2024-02-21T09:57:19;8.27;;;3.53;;
8737;SDS011;4405;49.272;8.590;2024-02-21T09:59:46;4.43;;;2.87;;
8737;SDS011;4405;49.272;8.590;2024-02-21T10:02:12;6.60;;;3.10;;
8737;SDS011;4405;49.272;8.590;2024-02-21T10:04:39;4.90;;;2.63;;
8737;SDS011;4405;49.272;8.590;2024-02-21T10:07:06;8.67;;;2.90;;
8737;SDS011;4405;49.272;8.590;2024-02-21T10:09:34;6.43;;;3.00;;
8737;SDS011;4405;49.272;8.590;2024-02-21T10:12:07;4.87;;;2.53;;
8737;SDS011;4405;49.272;8.590;2024-02-21T10:14:33;6.23;;;2.80;;
8737;SDS011;4405;49.272;8.590;2024-02-21T10:17:00;5.13;;;2.53;;
8737;SDS011;4405;49.272;8.590;2024-02-21T10:19:27;6.03;;;2.70;;
8737;SDS011;4405;49.272;8.590;2024-02-21T10:22:03;9.30;;;2.37;;
8737;SDS011;4405;49.272;8.590;2024-02-21T10:24:31;3.80;;;2.60;;
8737;SDS011;4405;49.272;8.590;2024-02-21T10:26:58;4.53;;;2.67;;
8737;SDS011;4405;49.272;8.590;2024-02-21T10:29:25;4.80;;;2.57;;
8737;SDS011;4405;49.272;8.590;2024-02-21T10:31:51;6.77;;;2.30;;
8737;SDS011;4405;49.272;8.590;2024-02-21T10:34:17;5.43;;;2.30;;
8737;SDS011;4405;49.272;8.590;2024-02-21T10:36:43;8.87;;;2.97;;
8737;SDS011;4405;49.272;8.590;2024-02-21T10:39:10;5.00;;;2.43;;
8737;SDS011;4405;49.272;8.590;2024-02-21T10:41:37;4.30;;;2.87;;
8737;SDS011;4405;49.272;8.590;2024-02-21T10:44:05;3.40;;;2.43;;
8737;SDS011;4405;49.272;8.590;2024-02-21T10:46:31;7.23;;;2.43;;
8737;SDS011;4405;49.272;8.590;2024-02-21T10:49:01;6.13;;;2.93;;
8737;SDS011;4405;49.272;8.590;2024-02-21T10:51:32;7.67;;;2.73;;
8737;SDS011;4405;49.272;8.590;2024-02-21T10:54:02;6.10;;;2.70;;
8737;SDS011;4405;49.272;8.590;2024-02-21T10:56:32;7.00;;;2.40;;
8737;SDS011;4405;49.272;8.590;2024-02-21T10:59:02;4.80;;;2.77;;
8737;SDS011;4405;49.272;8.590;2024-02-21T11:01:29;4.97;;;2.47;;
8737;SDS011;4405;49.272;8.590;2024-02-21T11:03:56;5.53;;;2.60;;
8737;SDS011;4405;49.272;8.590;2024-02-21T11:06:24;7.13;;;3.00;;
8737;SDS011;4405;49.272;8.590;2024-02-21T11:08:59;6.47;;;2.93;;
8737;SDS011;4405;49.272;8.590;2024-02-21T11:11:25;3.53;;;2.70;;
8737;SDS011;4405;49.272;8.590;2024-02-21T11:13:51;4.50;;;2.70;;
8737;SDS011;4405;49.272;8.590;2024-02-21T11:16:22;6.40;;;2.77;;
8737;SDS011;4405;49.272;8.590;2024-02-21T11:18:49;11.17;;;4.70;;
8737;SDS011;4405;49.272;8.590;2024-02-21T11:21:15;7.53;;;3.70;;
8737;SDS011;4405;49.272;8.590;2024-02-21T11:23:41;5.63;;;2.60;;
8737;SDS011;4405;49.272;8.590;2024-02-21T11:26:07;8.57;;;4.27;;
8737;SDS011;4405;49.272;8.590;2024-02-21T11:28:34;8.27;;;4.53;;
8737;SDS011;4405;49.272;8.590;2024-02-21T11:31:06;7.00;;;4.20;;
8737;SDS011;4405;49.272;8.590;2024-02-21T11:33:34;8.03;;;2.90;;
8737;SDS011;4405;49.272;8.590;2024-02-21T11:36:00;5.93;;;3.40;;
8737;SDS011;4405;49.272;8.590;2024-02-21T11:38:28;4.37;;;2.37;;
8737;SDS011;4405;49.272;8.590;2024-02-21T11:40:55;4.40;;;2.30;;
8737;SDS011;4405;49.272;8.590;2024-02-21T11:43:21;6.67;;;2.50;;
8737;SDS011;4405;49.272;8.590;2024-02-21T11:45:47;4.80;;;2.17;;
8737;SDS011;4405;49.272;8.590;2024-02-21T11:48:13;5.70;;;2.40;;
8737;SDS011;4405;49.272;8.590;2024-02-21T11:50:41;9.13;;;3.07;;
8737;SDS011;4405;49.272;8.590;2024-02-21T11:53:07;7.07;;;2.93;;
8737;SDS011;4405;49.272;8.590;2024-02-21T11:55:35;4.37;;;2.43;;
8737;SDS011;4405;49.272;8.590;2024-02-21T11:58:01;6.57;;;2.77;;
8737;SDS011;4405;49.272;8.590;2024-02-21T12:00:27;5.10;;;2.33;;
8737;SDS011;4405;49.272;8.590;2024-02-21T12:02:54;3.93;;;2.10;;
8737;SDS011;4405;49.272;8.590;2024-02-21T12:05:25;4.13;;;2.10;;
8737;SDS011;4405;49.272;8.590;2024-02-21T12:07:53;4.37;;;2.43;;
8737;SDS011;4405;49.272;8.590;2024-02-21T12:10:20;5.27;;;2.30;;
8737;SDS011;4405;49.272;8.590;2024-02-21T12:12:46;5.03;;;2.10;;
8737;SDS011;4405;49.272;8.590;2024-02-21T12:15:12;5.03;;;2.60;;
8737;SDS011;4405;49.272;8.590;2024-02-21T12:17:39;4.70;;;2.43;;
8737;SDS011;4405;49.272;8.590;2024-02-21T12:20:06;4.40;;;2.10;;
8737;SDS011;4405;49.272;8.590;2024-02-21T12:22:34;4.97;;;2.20;;
8737;SDS011;4405;49.272;8.590;2024-02-21T12:25:04;3.23;;;2.13;;
8737;SDS011;4405;49.272;8.590;2024-02-21T12:27:32;2.63;;;1.90;;
8737;SDS011;4405;49.272;8.590;2024-02-21T12:29:59;4.53;;;2.20;;
8737;SDS011;4405;49.272;8.590;2024-02-21T12:32:25;4.00;;;2.23;;
8737;SDS011;4405;49.272;8.590;2024-02-21T12:34:51;3.27;;;2.10;;
8737;SDS011;4405;49.272;8.590;2024-02-21T12:37:18;4.83;;;1.97;;
8737;SDS011;4405;49.272;8.590;2024-02-21T12:39:44;3.63;;;1.90;;
8737;SDS011;4405;49.272;8.590;2024-02-21T12:42:12;4.23;;;1.97;;
8737;SDS011;4405;49.272;8.590;2024-02-21T12:44:38;5.60;;;2.20;;
8737;SDS011;4405;49.272;8.590;2024-02-21T12:47:05;3.80;;;1.90;;
8737;SDS011;4405;49.272;8.590;2024-02-21T12:49:31;5.80;;;2.03;;
8737;SDS011;4405;49.272;8.590;2024-02-21T12:51:57;4.83;;;2.17;;
8737;SDS011;4405;49.272;8.590;2024-02-21T12:54:23;4.33;;;2.33;;
8737;SDS011;4405;49.272;8.590;2024-02-21T12:56:51;5.87;;;2.13;;
8737;SDS011;4405;49.272;8.590;2024-02-21T12:59:18;5.80;;;2.20;;
8737;SDS011;4405;49.272;8.590;2024-02-21T13:01:44;4.43;;;2.10;;
8737;SDS011;4405;49.272;8.590;2024-02-21T13:04:11;6.97;;;2.17;;
8737;SDS011;4405;49.272;8.590;2024-02-21T13:06:37;7.13;;;2.17;;
8737;SDS011;4405;49.272;8.590;2024-02-21T13:09:03;5.33;;;2.37;;
8737;SDS011;4405;49.272;8.590;2024-02-21T13:11:33;4.83;;;2.33;;
8737;SDS011;4405;49.272;8.590;2024-02-21T13:14:00;3.00;;;2.03;;
8737;SDS011;4405;49.272;8.590;2024-02-21T13:16:28;3.93;;;2.10;;
8737;SDS011;4405;49.272;8.590;2024-02-21T13:18:54;5.40;;;2.10;;
8737;SDS011;4405;49.272;8.590;2024-02-21T13:21:20;4.13;;;2.30;;
8737;SDS011;4405;49.272;8.590;2024-02-21T13:23:47;5.83;;;2.40;;
8737;SDS011;4405;49.272;8.590;2024-02-21T13:26:13;4.33;;;2.30;;
8737;SDS011;4405;49.272;8.590;2024-02-21T13:28:40;3.93;;;2.20;;
8737;SDS011;4405;49.272;8.590;2024-02-21T13:31:07;4.53;;;2.30;;
8737;SDS011;4405;49.272;8.590;2024-02-21T13:33:34;5.50;;;2.50;;
8737;SDS011;4405;49.272;8.590;2024-02-21T13:36:01;4.03;;;2.53;;
8737;SDS011;4405;49.272;8.590;2024-02-21T13:38:28;4.20;;;1.90;;
8737;SDS011;4405;49.272;8.590;2024-02-21T13:40:54;2.57;;;2.10;;
8737;SDS011;4405;49.272;8.590;2024-02-21T13:43:21;3.63;;;2.27;;
8737;SDS011;4405;49.272;8.590;2024-02-21T13:45:55;7.37;;;2.20;;
8737;SDS011;4405;49.272;8.590;2024-02-21T13:48:22;4.43;;;2.23;;
8737;SDS011;4405;49.272;8.590;2024-02-21T13:50:49;3.53;;;2.27;;
8737;SDS011;4405;49.272;8.590;2024-02-21T13:53:16;3.73;;;2.20;;
8737;SDS011;4405;49.272;8.590;2024-02-21T13:55:43;6.53;;;4.30;;
8737;SDS011;4405;49.272;8.590;2024-02-21T13:58:09;5.37;;;2.40;;
8737;SDS011;4405;49.272;8.590;2024-02-21T14:00:35;7.43;;;4.33;;
8737;SDS011;4405;49.272;8.590;2024-02-21T14:03:02;5.13;;;2.50;;
8737;SDS011;4405;49.272;8.590;2024-02-21T14:05:28;5.33;;;3.10;;
8737;SDS011;4405;49.272;8.590;2024-02-21T14:07:56;5.30;;;2.80;;
8737;SDS011;4405;49.272;8.590;2024-02-21T14:10:22;6.00;;;2.60;;
8737;SDS011;4405;49.272;8.590;2024-02-21T14:12:49;4.00;;;2.00;;
8737;SDS011;4405;49.272;8.590;2024-02-21T14:15:15;5.23;;;2.73;;
8737;SDS011;4405;49.272;8.590;2024-02-21T14:17:42;7.30;;;3.57;;
8737;SDS011;4405;49.272;8.590;2024-02-21T14:20:08;4.47;;;2.20;;
8737;SDS011;4405;49.272;8.590;2024-02-21T14:22:35;4.30;;;2.73;;
8737;SDS011;4405;49.272;8.590;2024-02-21T14:25:04;5.43;;;2.50;;
8737;SDS011;4405;49.272;8.590;2024-02-21T14:27:30;5.30;;;3.23;;
8737;SDS011;4405;49.272;8.590;2024-02-21T14:29:57;8.97;;;3.10;;
8737;SDS011;4405;49.272;8.590;2024-02-21T14:32:23;3.43;;;2.93;;
8737;SDS011;4405;49.272;8.590;2024-02-21T14:34:49;6.47;;;2.90;;
8737;SDS011;4405;49.272;8.590;2024-02-21T14:37:16;4.70;;;2.80;;
8737;SDS011;4405;49.272;8.590;2024-02-21T14:39:42;8.43;;;3.20;;
8737;SDS011;4405;49.272;8.590;2024-02-21T14:42:09;5.40;;;2.97;;
8737;SDS011;4405;49.272;8.590;2024-02-21T14:44:36;4.67;;;2.70;;
8737;SDS011;4405;49.272;8.590;2024-02-21T14:47:02;4.57;;;2.40;;
8737;SDS011;4405;49.272;8.590;2024-02-21T14:49:29;4.57;;;2.23;;
8737;SDS011;4405;49.272;8.590;2024-02-21T14:51:55;3.60;;;2.27;;
8737;SDS011;4405;49.272;8.590;2024-02-21T14:54:21;3.83;;;2.17;;
8737;SDS011;4405;49.272;8.590;2024-02-21T14:56:49;5.53;;;2.10;;
8737;SDS011;4405;49.272;8.590;2024-02-21T14:59:16;4.50;;;2.50;;
8737;SDS011;4405;49.272;8.590;2024-02-21T15:01:43;2.93;;;2.00;;
8737;SDS011;4405;49.272;8.590;2024-02-21T15:04:09;3.67;;;2.20;;
8737;SDS011;4405;49.272;8.590;2024-02-21T15:06:35;3.80;;;2.40;;
8737;SDS011;4405;49.272;8.590;2024-02-21T15:09:02;5.83;;;2.10;;